sensor_id;sensor_type;location;lat;lon;timestamp;P1;durP1;ratioP1;P2;durP2;ratioP2
68993;SDS011;56054;50.968;5.816;2024-01-25T00:00:06;40.10;;;5.90;;
68993;SDS011;56054;50.968;5.816;2024-01-25T00:03:13;42.93;;;5.50;;
68993;SDS011;56054;50.968;5.816;2024-01-25T00:06:20;43.17;;;5.80;;
68993;SDS011;56054;50.968;5.816;2024-01-25T00:09:27;33.43;;;5.37;;
68993;SDS011;56054;50.968;5.816;2024-01-25T00:12:34;41.43;;;4.97;;
68993;SDS011;56054;50.968;5.816;2024-01-25T00:15:41;52.40;;;6.17;;
68993;SDS011;56054;50.968;5.816;2024-01-25T00:18:48;44.20;;;5.47;;
68993;SDS011;56054;50.968;5.816;2024-01-25T00:21:55;30.43;;;4.83;;
68993;SDS011;56054;50.968;5.816;2024-01-25T00:25:02;54.13;;;6.40;;
68993;SDS011;56054;50.968;5.816;2024-01-25T00:28:09;44.70;;;5.43;;
68993;SDS011;56054;50.968;5.816;2024-01-25T00:31:16;33.73;;;5.37;;
68993;SDS011;56054;50.968;5.816;2024-01-25T00:34:23;33.03;;;5.27;;
68993;SDS011;56054;50.968;5.816;2024-01-25T00:37:30;47.10;;;5.57;;
68993;SDS011;56054;50.968;5.816;2024-01-25T00:40:37;44.90;;;5.37;;
68993;SDS011;56054;50.968;5.816;2024-01-25T00:43:44;41.20;;;5.73;;
68993;SDS011;56054;50.968;5.816;2024-01-25T00:46:52;42.73;;;5.70;;
68993;SDS011;56054;50.968;5.816;2024-01-25T00:49:59;43.03;;;6.00;;
68993;SDS011;56054;50.968;5.816;2024-01-25T00:53:06;42.30;;;5.83;;
68993;SDS011;56054;50.968;5.816;2024-01-25T00:56:13;37.77;;;5.20;;
68993;SDS011;56054;50.968;5.816;2024-01-25T00:59:20;33.00;;;5.73;;
68993;SDS011;56054;50.968;5.816;2024-01-25T01:02:27;34.87;;;5.30;;
68993;SDS011;56054;50.968;5.816;2024-01-25T01:05:36;31.03;;;5.23;;
68993;SDS011;56054;50.968;5.816;2024-01-25T01:08:50;41.77;;;4.67;;
68993;SDS011;56054;50.968;5.816;2024-01-25T01:11:57;33.20;;;5.30;;
68993;SDS011;56054;50.968;5.816;2024-01-25T01:15:04;41.47;;;5.47;;
68993;SDS011;56054;50.968;5.816;2024-01-25T01:18:11;40.63;;;5.33;;
68993;SDS011;56054;50.968;5.816;2024-01-25T01:21:18;35.73;;;5.60;;
68993;SDS011;56054;50.968;5.816;2024-01-25T01:24:25;39.97;;;5.10;;
68993;SDS011;56054;50.968;5.816;2024-01-25T01:27:32;47.33;;;5.60;;
68993;SDS011;56054;50.968;5.816;2024-01-25T01:30:39;37.43;;;5.13;;
68993;SDS011;56054;50.968;5.816;2024-01-25T01:33:46;39.57;;;5.27;;
68993;SDS011;56054;50.968;5.816;2024-01-25T01:36:53;39.60;;;5.57;;
68993;SDS011;56054;50.968;5.816;2024-01-25T01:40:00;40.57;;;4.90;;
68993;SDS011;56054;50.968;5.816;2024-01-25T01:43:07;39.50;;;6.13;;
68993;SDS011;56054;50.968;5.816;2024-01-25T01:46:56;37.73;;;5.27;;
68993;SDS011;56054;50.968;5.816;2024-01-25T01:49:44;42.20;;;6.27;;
68993;SDS011;56054;50.968;5.816;2024-01-25T01:52:51;43.00;;;5.23;;
68993;SDS011;56054;50.968;5.816;2024-01-25T01:55:58;33.67;;;4.70;;
68993;SDS011;56054;50.968;5.816;2024-01-25T01:59:05;55.13;;;7.17;;
68993;SDS011;56054;50.968;5.816;2024-01-25T02:02:16;37.03;;;5.17;;
68993;SDS011;56054;50.968;5.816;2024-01-25T02:05:23;44.43;;;6.97;;
68993;SDS011;56054;50.968;5.816;2024-01-25T02:08:30;38.93;;;5.50;;
68993;SDS011;56054;50.968;5.816;2024-01-25T02:11:37;50.03;;;5.43;;
68993;SDS011;56054;50.968;5.816;2024-01-25T02:14:44;37.93;;;5.77;;
68993;SDS011;56054;50.968;5.816;2024-01-25T02:17:51;53.10;;;5.60;;
68993;SDS011;56054;50.968;5.816;2024-01-25T02:20:58;46.57;;;5.30;;
68993;SDS011;56054;50.968;5.816;2024-01-25T02:24:05;44.97;;;5.30;;
68993;SDS011;56054;50.968;5.816;2024-01-25T02:27:12;43.87;;;5.30;;
68993;SDS011;56054;50.968;5.816;2024-01-25T02:30:19;32.27;;;5.03;;
68993;SDS011;56054;50.968;5.816;2024-01-25T02:33:26;52.60;;;6.33;;
68993;SDS011;56054;50.968;5.816;2024-01-25T02:36:33;36.47;;;5.70;;
68993;SDS011;56054;50.968;5.816;2024-01-25T02:39:40;38.47;;;5.90;;
68993;SDS011;56054;50.968;5.816;2024-01-25T02:42:47;39.23;;;5.57;;
68993;SDS011;56054;50.968;5.816;2024-01-25T02:45:54;50.83;;;6.70;;
68993;SDS011;56054;50.968;5.816;2024-01-25T02:49:01;56.37;;;6.07;;
68993;SDS011;56054;50.968;5.816;2024-01-25T02:52:08;40.53;;;5.70;;
68993;SDS011;56054;50.968;5.816;2024-01-25T02:55:18;34.73;;;5.20;;
68993;SDS011;56054;50.968;5.816;2024-01-25T02:58:25;41.00;;;5.20;;
68993;SDS011;56054;50.968;5.816;2024-01-25T03:01:39;38.70;;;5.80;;
68993;SDS011;56054;50.968;5.816;2024-01-25T03:04:47;54.10;;;6.20;;
68993;SDS011;56054;50.968;5.816;2024-01-25T03:07:54;38.03;;;5.70;;
68993;SDS011;56054;50.968;5.816;2024-01-25T03:11:01;38.40;;;7.00;;
68993;SDS011;56054;50.968;5.816;2024-01-25T03:14:08;38.97;;;4.80;;
68993;SDS011;56054;50.968;5.816;2024-01-25T03:17:15;42.00;;;5.30;;
68993;SDS011;56054;50.968;5.816;2024-01-25T03:20:29;42.27;;;6.07;;
68993;SDS011;56054;50.968;5.816;2024-01-25T03:23:37;55.10;;;5.70;;
68993;SDS011;56054;50.968;5.816;2024-01-25T03:26:44;38.03;;;5.63;;
68993;SDS011;56054;50.968;5.816;2024-01-25T03:29:51;54.40;;;6.73;;
68993;SDS011;56054;50.968;5.816;2024-01-25T03:32:58;40.43;;;4.47;;
68993;SDS011;56054;50.968;5.816;2024-01-25T03:36:05;49.20;;;6.20;;
68993;SDS011;56054;50.968;5.816;2024-01-25T03:39:13;48.17;;;5.93;;
68993;SDS011;56054;50.968;5.816;2024-01-25T03:42:20;46.07;;;6.23;;
68993;SDS011;56054;50.968;5.816;2024-01-25T03:45:27;34.10;;;4.80;;
68993;SDS011;56054;50.968;5.816;2024-01-25T03:48:34;39.97;;;5.87;;
68993;SDS011;56054;50.968;5.816;2024-01-25T03:51:41;47.47;;;5.50;;
68993;SDS011;56054;50.968;5.816;2024-01-25T03:54:48;45.90;;;5.60;;
68993;SDS011;56054;50.968;5.816;2024-01-25T03:57:55;41.90;;;6.13;;
68993;SDS011;56054;50.968;5.816;2024-01-25T04:01:02;42.33;;;5.70;;
68993;SDS011;56054;50.968;5.816;2024-01-25T04:04:09;42.63;;;6.10;;
68993;SDS011;56054;50.968;5.816;2024-01-25T04:07:16;67.83;;;5.83;;
68993;SDS011;56054;50.968;5.816;2024-01-25T04:10:23;36.43;;;5.27;;
68993;SDS011;56054;50.968;5.816;2024-01-25T04:13:30;43.93;;;5.23;;
68993;SDS011;56054;50.968;5.816;2024-01-25T04:16:37;39.77;;;4.30;;
68993;SDS011;56054;50.968;5.816;2024-01-25T04:19:44;31.90;;;5.77;;
68993;SDS011;56054;50.968;5.816;2024-01-25T04:22:51;33.13;;;5.03;;
68993;SDS011;56054;50.968;5.816;2024-01-25T04:25:58;42.87;;;5.53;;
68993;SDS011;56054;50.968;5.816;2024-01-25T04:29:05;41.17;;;5.10;;
68993;SDS011;56054;50.968;5.816;2024-01-25T04:32:12;42.40;;;5.83;;
68993;SDS011;56054;50.968;5.816;2024-01-25T04:35:19;34.50;;;5.23;;
68993;SDS011;56054;50.968;5.816;2024-01-25T04:38:26;44.40;;;5.90;;
68993;SDS011;56054;50.968;5.816;2024-01-25T04:41:33;43.00;;;6.20;;
68993;SDS011;56054;50.968;5.816;2024-01-25T04:44:40;42.37;;;6.23;;
68993;SDS011;56054;50.968;5.816;2024-01-25T04:47:47;34.77;;;5.17;;
68993;SDS011;56054;50.968;5.816;2024-01-25T04:50:55;37.27;;;5.13;;
68993;SDS011;56054;50.968;5.816;2024-01-25T04:54:03;34.37;;;5.27;;
68993;SDS011;56054;50.968;5.816;2024-01-25T04:57:10;48.03;;;6.37;;
68993;SDS011;56054;50.968;5.816;2024-01-25T05:00:17;42.33;;;5.97;;
68993;SDS011;56054;50.968;5.816;2024-01-25T05:03:24;34.57;;;5.83;;
68993;SDS011;56054;50.968;5.816;2024-01-25T05:06:31;39.90;;;6.17;;
68993;SDS011;56054;50.968;5.816;2024-01-25T05:09:38;35.70;;;5.73;;
68993;SDS011;56054;50.968;5.816;2024-01-25T05:12:45;39.00;;;6.23;;
68993;SDS011;56054;50.968;5.816;2024-01-25T05:15:59;42.50;;;5.17;;
68993;SDS011;56054;50.968;5.816;2024-01-25T05:19:06;40.40;;;5.67;;
68993;SDS011;56054;50.968;5.816;2024-01-25T05:22:13;37.30;;;5.77;;
68993;SDS011;56054;50.968;5.816;2024-01-25T05:25:20;43.83;;;5.87;;
68993;SDS011;56054;50.968;5.816;2024-01-25T05:28:27;39.17;;;5.43;;
68993;SDS011;56054;50.968;5.816;2024-01-25T05:31:34;37.33;;;5.17;;
68993;SDS011;56054;50.968;5.816;2024-01-25T05:34:41;43.47;;;5.97;;
68993;SDS011;56054;50.968;5.816;2024-01-25T05:37:48;33.30;;;5.17;;
68993;SDS011;56054;50.968;5.816;2024-01-25T05:40:55;37.50;;;5.50;;
68993;SDS011;56054;50.968;5.816;2024-01-25T05:44:02;36.93;;;5.17;;
68993;SDS011;56054;50.968;5.816;2024-01-25T05:47:09;47.17;;;5.23;;
68993;SDS011;56054;50.968;5.816;2024-01-25T05:50:16;27.17;;;4.93;;
68993;SDS011;56054;50.968;5.816;2024-01-25T05:53:23;44.77;;;5.63;;
68993;SDS011;56054;50.968;5.816;2024-01-25T05:56:30;36.03;;;5.07;;
68993;SDS011;56054;50.968;5.816;2024-01-25T05:59:37;41.63;;;5.20;;
68993;SDS011;56054;50.968;5.816;2024-01-25T06:02:44;48.57;;;5.60;;
68993;SDS011;56054;50.968;5.816;2024-01-25T06:05:51;30.93;;;5.40;;
68993;SDS011;56054;50.968;5.816;2024-01-25T06:08:58;36.10;;;5.43;;
68993;SDS011;56054;50.968;5.816;2024-01-25T06:12:05;42.60;;;5.60;;
68993;SDS011;56054;50.968;5.816;2024-01-25T06:15:12;37.03;;;4.53;;
68993;SDS011;56054;50.968;5.816;2024-01-25T06:18:19;34.13;;;5.20;;
68993;SDS011;56054;50.968;5.816;2024-01-25T06:21:26;42.93;;;6.00;;
68993;SDS011;56054;50.968;5.816;2024-01-25T06:24:33;43.57;;;5.53;;
68993;SDS011;56054;50.968;5.816;2024-01-25T06:27:40;30.20;;;4.43;;
68993;SDS011;56054;50.968;5.816;2024-01-25T06:30:47;42.70;;;5.43;;
68993;SDS011;56054;50.968;5.816;2024-01-25T06:33:54;38.03;;;4.83;;
68993;SDS011;56054;50.968;5.816;2024-01-25T06:37:01;37.33;;;5.73;;
68993;SDS011;56054;50.968;5.816;2024-01-25T06:40:08;43.37;;;5.53;;
68993;SDS011;56054;50.968;5.816;2024-01-25T06:43:15;47.63;;;6.13;;
68993;SDS011;56054;50.968;5.816;2024-01-25T06:46:22;41.00;;;5.90;;
68993;SDS011;56054;50.968;5.816;2024-01-25T06:49:29;38.63;;;5.60;;
68993;SDS011;56054;50.968;5.816;2024-01-25T06:52:36;44.13;;;5.80;;
68993;SDS011;56054;50.968;5.816;2024-01-25T06:55:43;36.60;;;5.67;;
68993;SDS011;56054;50.968;5.816;2024-01-25T06:58:50;52.17;;;6.57;;
68993;SDS011;56054;50.968;5.816;2024-01-25T07:01:57;41.87;;;6.90;;
68993;SDS011;56054;50.968;5.816;2024-01-25T07:05:04;37.37;;;5.53;;
68993;SDS011;56054;50.968;5.816;2024-01-25T07:08:11;41.13;;;5.53;;
68993;SDS011;56054;50.968;5.816;2024-01-25T07:11:18;36.67;;;5.43;;
68993;SDS011;56054;50.968;5.816;2024-01-25T07:14:25;35.67;;;6.37;;
68993;SDS011;56054;50.968;5.816;2024-01-25T07:17:32;46.27;;;5.40;;
68993;SDS011;56054;50.968;5.816;2024-01-25T07:20:39;49.27;;;6.60;;
68993;SDS011;56054;50.968;5.816;2024-01-25T07:23:46;29.23;;;5.37;;
68993;SDS011;56054;50.968;5.816;2024-01-25T07:26:53;42.00;;;5.83;;
68993;SDS011;56054;50.968;5.816;2024-01-25T07:30:00;43.10;;;5.57;;
68993;SDS011;56054;50.968;5.816;2024-01-25T07:33:07;41.77;;;5.30;;
68993;SDS011;56054;50.968;5.816;2024-01-25T07:36:14;36.73;;;5.73;;
68993;SDS011;56054;50.968;5.816;2024-01-25T07:39:21;31.13;;;5.70;;
68993;SDS011;56054;50.968;5.816;2024-01-25T07:42:28;29.17;;;5.20;;
68993;SDS011;56054;50.968;5.816;2024-01-25T07:45:35;33.23;;;5.87;;
68993;SDS011;56054;50.968;5.816;2024-01-25T07:48:42;30.50;;;5.03;;
68993;SDS011;56054;50.968;5.816;2024-01-25T07:51:49;31.63;;;5.57;;
68993;SDS011;56054;50.968;5.816;2024-01-25T07:54:56;38.80;;;6.33;;
68993;SDS011;56054;50.968;5.816;2024-01-25T07:58:03;41.93;;;5.37;;
68993;SDS011;56054;50.968;5.816;2024-01-25T08:01:10;37.30;;;5.67;;
68993;SDS011;56054;50.968;5.816;2024-01-25T08:04:17;36.80;;;5.27;;
68993;SDS011;56054;50.968;5.816;2024-01-25T08:07:24;42.93;;;5.60;;
68993;SDS011;56054;50.968;5.816;2024-01-25T08:10:31;46.53;;;5.57;;
68993;SDS011;56054;50.968;5.816;2024-01-25T08:13:38;50.73;;;5.60;;
68993;SDS011;56054;50.968;5.816;2024-01-25T08:16:45;31.23;;;4.57;;
68993;SDS011;56054;50.968;5.816;2024-01-25T08:19:52;36.60;;;5.57;;
68993;SDS011;56054;50.968;5.816;2024-01-25T08:22:59;36.73;;;5.03;;
68993;SDS011;56054;50.968;5.816;2024-01-25T08:26:06;34.63;;;5.17;;
68993;SDS011;56054;50.968;5.816;2024-01-25T08:29:13;44.73;;;6.33;;
68993;SDS011;56054;50.968;5.816;2024-01-25T08:32:20;32.97;;;5.80;;
68993;SDS011;56054;50.968;5.816;2024-01-25T08:35:27;39.40;;;6.20;;
68993;SDS011;56054;50.968;5.816;2024-01-25T08:38:34;41.57;;;6.87;;
68993;SDS011;56054;50.968;5.816;2024-01-25T08:41:41;42.83;;;7.07;;
68993;SDS011;56054;50.968;5.816;2024-01-25T08:44:48;60.50;;;6.60;;
68993;SDS011;56054;50.968;5.816;2024-01-25T08:47:55;49.00;;;6.33;;
68993;SDS011;56054;50.968;5.816;2024-01-25T08:51:02;44.27;;;8.50;;
68993;SDS011;56054;50.968;5.816;2024-01-25T08:54:09;39.23;;;7.07;;
68993;SDS011;56054;50.968;5.816;2024-01-25T08:57:16;43.13;;;8.87;;
68993;SDS011;56054;50.968;5.816;2024-01-25T09:00:23;50.53;;;10.10;;
68993;SDS011;56054;50.968;5.816;2024-01-25T09:03:30;56.37;;;10.27;;
68993;SDS011;56054;50.968;5.816;2024-01-25T09:06:37;58.47;;;9.97;;
68993;SDS011;56054;50.968;5.816;2024-01-25T09:09:44;46.73;;;10.13;;
68993;SDS011;56054;50.968;5.816;2024-01-25T09:12:51;43.40;;;10.27;;
68993;SDS011;56054;50.968;5.816;2024-01-25T09:15:58;62.10;;;14.00;;
68993;SDS011;56054;50.968;5.816;2024-01-25T09:19:05;41.70;;;11.57;;
68993;SDS011;56054;50.968;5.816;2024-01-25T09:22:12;57.53;;;12.17;;
68993;SDS011;56054;50.968;5.816;2024-01-25T09:25:19;56.87;;;13.43;;
68993;SDS011;56054;50.968;5.816;2024-01-25T09:28:26;48.67;;;14.33;;
68993;SDS011;56054;50.968;5.816;2024-01-25T09:31:33;66.83;;;16.00;;
68993;SDS011;56054;50.968;5.816;2024-01-25T09:34:40;60.43;;;15.27;;
68993;SDS011;56054;50.968;5.816;2024-01-25T09:37:47;47.67;;;13.17;;
68993;SDS011;56054;50.968;5.816;2024-01-25T09:40:54;61.37;;;14.03;;
68993;SDS011;56054;50.968;5.816;2024-01-25T09:44:03;65.77;;;14.77;;
68993;SDS011;56054;50.968;5.816;2024-01-25T09:47:10;59.93;;;15.17;;
68993;SDS011;56054;50.968;5.816;2024-01-25T09:50:18;60.03;;;15.70;;
68993;SDS011;56054;50.968;5.816;2024-01-25T09:53:25;62.10;;;16.07;;
68993;SDS011;56054;50.968;5.816;2024-01-25T09:56:32;71.93;;;16.87;;
68993;SDS011;56054;50.968;5.816;2024-01-25T09:59:40;62.77;;;18.57;;
68993;SDS011;56054;50.968;5.816;2024-01-25T10:02:47;61.87;;;17.57;;
68993;SDS011;56054;50.968;5.816;2024-01-25T10:05:55;58.87;;;17.63;;
68993;SDS011;56054;50.968;5.816;2024-01-25T10:09:03;73.33;;;18.03;;
68993;SDS011;56054;50.968;5.816;2024-01-25T10:12:11;74.57;;;19.10;;
68993;SDS011;56054;50.968;5.816;2024-01-25T10:15:18;71.27;;;16.83;;
68993;SDS011;56054;50.968;5.816;2024-01-25T10:18:25;49.00;;;13.60;;
68993;SDS011;56054;50.968;5.816;2024-01-25T10:21:32;52.33;;;13.93;;
68993;SDS011;56054;50.968;5.816;2024-01-25T10:24:39;51.13;;;13.90;;
68993;SDS011;56054;50.968;5.816;2024-01-25T10:27:47;68.13;;;14.50;;
68993;SDS011;56054;50.968;5.816;2024-01-25T10:30:57;48.67;;;11.87;;
68993;SDS011;56054;50.968;5.816;2024-01-25T10:34:04;45.60;;;12.10;;
68993;SDS011;56054;50.968;5.816;2024-01-25T10:37:11;52.10;;;12.63;;
68993;SDS011;56054;50.968;5.816;2024-01-25T10:40:20;45.63;;;11.90;;
68993;SDS011;56054;50.968;5.816;2024-01-25T10:43:28;46.43;;;11.53;;
68993;SDS011;56054;50.968;5.816;2024-01-25T10:46:35;55.17;;;13.77;;
68993;SDS011;56054;50.968;5.816;2024-01-25T10:49:46;43.47;;;12.57;;
68993;SDS011;56054;50.968;5.816;2024-01-25T10:52:54;49.43;;;13.07;;
68993;SDS011;56054;50.968;5.816;2024-01-25T10:56:02;47.20;;;12.87;;
68993;SDS011;56054;50.968;5.816;2024-01-25T10:59:12;52.17;;;12.97;;
68993;SDS011;56054;50.968;5.816;2024-01-25T11:02:20;55.20;;;12.63;;
68993;SDS011;56054;50.968;5.816;2024-01-25T11:05:27;47.80;;;11.73;;
68993;SDS011;56054;50.968;5.816;2024-01-25T11:08:34;54.53;;;13.77;;
68993;SDS011;56054;50.968;5.816;2024-01-25T11:11:43;44.63;;;12.10;;
68993;SDS011;56054;50.968;5.816;2024-01-25T11:14:54;48.13;;;10.57;;
68993;SDS011;56054;50.968;5.816;2024-01-25T11:18:08;46.00;;;10.20;;
68993;SDS011;56054;50.968;5.816;2024-01-25T11:21:22;48.17;;;10.23;;
68993;SDS011;56054;50.968;5.816;2024-01-25T11:24:39;39.23;;;9.60;;
68993;SDS011;56054;50.968;5.816;2024-01-25T11:27:47;39.20;;;8.97;;
68993;SDS011;56054;50.968;5.816;2024-01-25T11:30:55;42.50;;;8.97;;
68993;SDS011;56054;50.968;5.816;2024-01-25T11:34:02;46.80;;;9.80;;
68993;SDS011;56054;50.968;5.816;2024-01-25T11:37:09;60.50;;;9.53;;
68993;SDS011;56054;50.968;5.816;2024-01-25T11:40:16;41.07;;;8.47;;
68993;SDS011;56054;50.968;5.816;2024-01-25T11:43:23;36.33;;;9.20;;
68993;SDS011;56054;50.968;5.816;2024-01-25T11:46:30;44.27;;;8.73;;
68993;SDS011;56054;50.968;5.816;2024-01-25T11:49:39;41.73;;;9.30;;
68993;SDS011;56054;50.968;5.816;2024-01-25T11:52:46;40.23;;;9.23;;
68993;SDS011;56054;50.968;5.816;2024-01-25T11:55:53;37.67;;;8.67;;
68993;SDS011;56054;50.968;5.816;2024-01-25T11:59:02;42.07;;;8.77;;
68993;SDS011;56054;50.968;5.816;2024-01-25T12:02:09;41.33;;;8.40;;
68993;SDS011;56054;50.968;5.816;2024-01-25T12:05:16;32.73;;;6.83;;
68993;SDS011;56054;50.968;5.816;2024-01-25T12:08:23;35.90;;;7.90;;
68993;SDS011;56054;50.968;5.816;2024-01-25T12:11:30;32.63;;;8.33;;
68993;SDS011;56054;50.968;5.816;2024-01-25T12:14:37;49.73;;;9.00;;
68993;SDS011;56054;50.968;5.816;2024-01-25T12:17:44;35.93;;;8.80;;
68993;SDS011;56054;50.968;5.816;2024-01-25T12:20:51;33.67;;;8.33;;
68993;SDS011;56054;50.968;5.816;2024-01-25T12:23:58;32.20;;;6.87;;
68993;SDS011;56054;50.968;5.816;2024-01-25T12:27:05;36.13;;;6.70;;
68993;SDS011;56054;50.968;5.816;2024-01-25T12:30:12;29.40;;;7.10;;
68993;SDS011;56054;50.968;5.816;2024-01-25T12:33:19;32.90;;;7.57;;
68993;SDS011;56054;50.968;5.816;2024-01-25T12:36:26;37.23;;;6.83;;
68993;SDS011;56054;50.968;5.816;2024-01-25T12:39:33;31.93;;;7.13;;
68993;SDS011;56054;50.968;5.816;2024-01-25T12:42:40;36.60;;;6.53;;
68993;SDS011;56054;50.968;5.816;2024-01-25T12:45:47;34.20;;;6.27;;
68993;SDS011;56054;50.968;5.816;2024-01-25T12:48:54;43.57;;;7.53;;
68993;SDS011;56054;50.968;5.816;2024-01-25T12:52:01;42.43;;;7.17;;
68993;SDS011;56054;50.968;5.816;2024-01-25T12:55:08;35.20;;;7.23;;
68993;SDS011;56054;50.968;5.816;2024-01-25T12:58:15;32.40;;;6.17;;
68993;SDS011;56054;50.968;5.816;2024-01-25T13:01:22;29.20;;;6.90;;
68993;SDS011;56054;50.968;5.816;2024-01-25T13:04:29;29.17;;;6.30;;
68993;SDS011;56054;50.968;5.816;2024-01-25T13:07:36;47.07;;;6.77;;
68993;SDS011;56054;50.968;5.816;2024-01-25T13:10:43;30.93;;;6.13;;
68993;SDS011;56054;50.968;5.816;2024-01-25T13:13:50;33.77;;;6.53;;
68993;SDS011;56054;50.968;5.816;2024-01-25T13:16:57;34.93;;;5.60;;
68993;SDS011;56054;50.968;5.816;2024-01-25T13:20:04;27.87;;;6.63;;
68993;SDS011;56054;50.968;5.816;2024-01-25T13:23:11;29.27;;;6.17;;
68993;SDS011;56054;50.968;5.816;2024-01-25T13:26:18;29.77;;;5.67;;
68993;SDS011;56054;50.968;5.816;2024-01-25T13:29:25;37.27;;;5.50;;
68993;SDS011;56054;50.968;5.816;2024-01-25T13:32:32;27.13;;;4.73;;
68993;SDS011;56054;50.968;5.816;2024-01-25T13:35:39;27.47;;;5.33;;
68993;SDS011;56054;50.968;5.816;2024-01-25T13:38:46;44.40;;;6.03;;
68993;SDS011;56054;50.968;5.816;2024-01-25T13:41:53;29.37;;;4.97;;
68993;SDS011;56054;50.968;5.816;2024-01-25T13:45:00;32.03;;;5.07;;
68993;SDS011;56054;50.968;5.816;2024-01-25T13:48:07;32.03;;;5.23;;
68993;SDS011;56054;50.968;5.816;2024-01-25T13:51:14;30.43;;;5.10;;
68993;SDS011;56054;50.968;5.816;2024-01-25T13:54:21;30.17;;;4.97;;
68993;SDS011;56054;50.968;5.816;2024-01-25T13:57:28;33.87;;;4.43;;
68993;SDS011;56054;50.968;5.816;2024-01-25T14:00:35;26.20;;;4.97;;
68993;SDS011;56054;50.968;5.816;2024-01-25T14:03:42;37.03;;;5.37;;
68993;SDS011;56054;50.968;5.816;2024-01-25T14:06:49;35.30;;;4.87;;
68993;SDS011;56054;50.968;5.816;2024-01-25T14:09:56;28.70;;;4.43;;
68993;SDS011;56054;50.968;5.816;2024-01-25T14:13:03;23.50;;;4.87;;
68993;SDS011;56054;50.968;5.816;2024-01-25T14:16:10;25.50;;;4.40;;
68993;SDS011;56054;50.968;5.816;2024-01-25T14:19:17;27.30;;;5.37;;
68993;SDS011;56054;50.968;5.816;2024-01-25T14:22:24;33.80;;;4.70;;
68993;SDS011;56054;50.968;5.816;2024-01-25T14:25:31;25.90;;;4.83;;
68993;SDS011;56054;50.968;5.816;2024-01-25T14:28:38;19.40;;;4.17;;
68993;SDS011;56054;50.968;5.816;2024-01-25T14:31:45;34.03;;;4.80;;
68993;SDS011;56054;50.968;5.816;2024-01-25T14:34:52;25.90;;;4.60;;
68993;SDS011;56054;50.968;5.816;2024-01-25T14:37:59;31.87;;;5.57;;
68993;SDS011;56054;50.968;5.816;2024-01-25T14:41:09;28.60;;;4.90;;
68993;SDS011;56054;50.968;5.816;2024-01-25T14:44:16;22.30;;;4.33;;
68993;SDS011;56054;50.968;5.816;2024-01-25T14:47:23;21.10;;;4.47;;
68993;SDS011;56054;50.968;5.816;2024-01-25T14:50:30;26.53;;;3.73;;
68993;SDS011;56054;50.968;5.816;2024-01-25T14:53:37;29.17;;;5.03;;
68993;SDS011;56054;50.968;5.816;2024-01-25T14:56:44;18.43;;;3.43;;
68993;SDS011;56054;50.968;5.816;2024-01-25T14:59:51;11.50;;;2.80;;
68993;SDS011;56054;50.968;5.816;2024-01-25T15:02:58;12.50;;;3.33;;
68993;SDS011;56054;50.968;5.816;2024-01-25T15:06:05;13.10;;;3.93;;
68993;SDS011;56054;50.968;5.816;2024-01-25T15:09:12;12.33;;;2.90;;
68993;SDS011;56054;50.968;5.816;2024-01-25T15:12:19;18.17;;;3.00;;
68993;SDS011;56054;50.968;5.816;2024-01-25T15:15:26;17.40;;;2.87;;
68993;SDS011;56054;50.968;5.816;2024-01-25T15:18:33;15.53;;;3.80;;
68993;SDS011;56054;50.968;5.816;2024-01-25T15:21:40;14.00;;;3.53;;
68993;SDS011;56054;50.968;5.816;2024-01-25T15:24:47;17.87;;;3.97;;
68993;SDS011;56054;50.968;5.816;2024-01-25T15:27:54;16.30;;;3.37;;
68993;SDS011;56054;50.968;5.816;2024-01-25T15:31:01;17.50;;;4.53;;
68993;SDS011;56054;50.968;5.816;2024-01-25T15:34:08;10.80;;;3.77;;
68993;SDS011;56054;50.968;5.816;2024-01-25T15:37:15;11.33;;;3.70;;
68993;SDS011;56054;50.968;5.816;2024-01-25T15:40:22;14.53;;;4.50;;
68993;SDS011;56054;50.968;5.816;2024-01-25T15:43:29;15.87;;;4.20;;
68993;SDS011;56054;50.968;5.816;2024-01-25T15:46:36;9.80;;;3.47;;
68993;SDS011;56054;50.968;5.816;2024-01-25T15:49:43;14.67;;;4.27;;
68993;SDS011;56054;50.968;5.816;2024-01-25T15:52:50;15.73;;;3.97;;
68993;SDS011;56054;50.968;5.816;2024-01-25T15:55:57;10.47;;;5.23;;
68993;SDS011;56054;50.968;5.816;2024-01-25T15:59:04;15.57;;;5.07;;
68993;SDS011;56054;50.968;5.816;2024-01-25T16:02:11;16.93;;;4.13;;
68993;SDS011;56054;50.968;5.816;2024-01-25T16:05:18;7.67;;;2.63;;
68993;SDS011;56054;50.968;5.816;2024-01-25T16:08:25;9.57;;;3.73;;
68993;SDS011;56054;50.968;5.816;2024-01-25T16:11:32;7.47;;;2.87;;
68993;SDS011;56054;50.968;5.816;2024-01-25T16:14:39;11.97;;;3.30;;
68993;SDS011;56054;50.968;5.816;2024-01-25T16:17:46;10.87;;;3.63;;
68993;SDS011;56054;50.968;5.816;2024-01-25T16:20:53;8.53;;;3.33;;
68993;SDS011;56054;50.968;5.816;2024-01-25T16:24:00;9.30;;;3.43;;
68993;SDS011;56054;50.968;5.816;2024-01-25T16:27:07;10.87;;;3.60;;
68993;SDS011;56054;50.968;5.816;2024-01-25T16:30:14;9.73;;;3.83;;
68993;SDS011;56054;50.968;5.816;2024-01-25T16:33:21;7.50;;;4.33;;
68993;SDS011;56054;50.968;5.816;2024-01-25T16:36:28;10.73;;;4.50;;
68993;SDS011;56054;50.968;5.816;2024-01-25T16:39:35;8.93;;;5.40;;
68993;SDS011;56054;50.968;5.816;2024-01-25T16:42:42;11.20;;;5.13;;
68993;SDS011;56054;50.968;5.816;2024-01-25T16:45:49;9.33;;;4.97;;
68993;SDS011;56054;50.968;5.816;2024-01-25T16:48:56;12.53;;;4.90;;
68993;SDS011;56054;50.968;5.816;2024-01-25T16:52:03;9.00;;;5.47;;
68993;SDS011;56054;50.968;5.816;2024-01-25T16:55:10;7.53;;;4.83;;
68993;SDS011;56054;50.968;5.816;2024-01-25T16:58:17;10.47;;;4.97;;
68993;SDS011;56054;50.968;5.816;2024-01-25T17:01:24;10.50;;;5.00;;
68993;SDS011;56054;50.968;5.816;2024-01-25T17:04:31;10.40;;;4.53;;
68993;SDS011;56054;50.968;5.816;2024-01-25T17:07:38;13.93;;;4.97;;
68993;SDS011;56054;50.968;5.816;2024-01-25T17:10:45;6.63;;;4.07;;
68993;SDS011;56054;50.968;5.816;2024-01-25T17:13:53;10.57;;;4.20;;
68993;SDS011;56054;50.968;5.816;2024-01-25T17:17:06;11.53;;;4.33;;
68993;SDS011;56054;50.968;5.816;2024-01-25T17:20:13;13.60;;;4.73;;
68993;SDS011;56054;50.968;5.816;2024-01-25T17:23:20;8.60;;;4.17;;
68993;SDS011;56054;50.968;5.816;2024-01-25T17:26:27;7.83;;;4.30;;
68993;SDS011;56054;50.968;5.816;2024-01-25T17:29:34;10.13;;;4.03;;
68993;SDS011;56054;50.968;5.816;2024-01-25T17:32:41;6.73;;;3.60;;
68993;SDS011;56054;50.968;5.816;2024-01-25T17:35:48;9.50;;;4.20;;
68993;SDS011;56054;50.968;5.816;2024-01-25T17:38:55;4.93;;;3.43;;
68993;SDS011;56054;50.968;5.816;2024-01-25T17:42:09;6.80;;;3.97;;
68993;SDS011;56054;50.968;5.816;2024-01-25T17:45:16;10.30;;;4.30;;
68993;SDS011;56054;50.968;5.816;2024-01-25T17:48:23;10.33;;;4.30;;
68993;SDS011;56054;50.968;5.816;2024-01-25T17:51:30;13.17;;;4.83;;
68993;SDS011;56054;50.968;5.816;2024-01-25T17:54:37;5.33;;;3.93;;
68993;SDS011;56054;50.968;5.816;2024-01-25T17:57:44;9.10;;;4.87;;
68993;SDS011;56054;50.968;5.816;2024-01-25T18:00:51;6.50;;;3.80;;
68993;SDS011;56054;50.968;5.816;2024-01-25T18:03:58;8.40;;;4.53;;
68993;SDS011;56054;50.968;5.816;2024-01-25T18:07:05;7.20;;;4.57;;
68993;SDS011;56054;50.968;5.816;2024-01-25T18:10:12;9.33;;;4.37;;
68993;SDS011;56054;50.968;5.816;2024-01-25T18:13:19;9.87;;;5.80;;
68993;SDS011;56054;50.968;5.816;2024-01-25T18:16:26;12.77;;;5.53;;
68993;SDS011;56054;50.968;5.816;2024-01-25T18:19:33;11.87;;;5.60;;
68993;SDS011;56054;50.968;5.816;2024-01-25T18:22:40;8.83;;;5.37;;
68993;SDS011;56054;50.968;5.816;2024-01-25T18:25:47;10.60;;;5.70;;
68993;SDS011;56054;50.968;5.816;2024-01-25T18:28:54;9.23;;;5.27;;